Lähistön asemien METAR-raportit

 

EFJY - Jyvaskyla (mil/C, Finland
Etäisyys Sääasemalta: E 40km
Päivitetty: 29/01/2020 03:20
Heikkoa Lumisadetta, Pilvistä
Heikkoa Lumisadetta, Pilvistä
 Tuulen suunta I
Tuuli: I 11 km/h
Lämpötila: -1°C
Tuulen purevuus: -5°C
Kastepiste: -1°C
Ilmankosteus: 100%
Ilmanpaine: 999 hPa
Yhteenveto: Heikkoa Lumisadetta
Pilvisyys: Pilvistä
Näkyvyys: 10 km
Pilvisyystiedot: Pilvistä 91 m
2020/01/29 03:20 EFJY 290320Z AUTO 10006KT 9999 -SN OVC003 M01/M01 Q0999
EFKU - Kuopio (mil/Civ), Finland
Etäisyys Sääasemalta: IKo 106km
Päivitetty: 29/01/2020 03:20
Heikkoa Lumisadetta, Pilvistä
Heikkoa Lumisadetta, Pilvistä
 Tuulen suunta I
Tuuli: I 13 km/h
Lämpötila: -5°C
Tuulen purevuus: -10°C
Kastepiste: -6°C
Ilmankosteus: 93%
Ilmanpaine: 1001 hPa
Yhteenveto: Heikkoa Lumisadetta
Pilvisyys: Pilvistä
Näkyvyys: 10 km
Pilvisyystiedot: Pilvistä 244 m
2020/01/29 03:20 EFKU 290320Z AUTO 09007KT 9999 -SN OVC008 M05/M06 Q1001
EFHA - Halli (fin-Afb), Finland
Etäisyys Sääasemalta: ELo 113km
Päivitetty: 29/01/2020 03:20
Sumua, Ukkospilviä
Sumua, Ukkospilviä
 Tuulen suunta IKa
Tuuli: IKa 17 km/h
Lämpötila: 0°C
Tuulen purevuus: -4°C
Kastepiste: 0°C
Ilmankosteus: 100%
Ilmanpaine: 997 hPa
Yhteenveto: Sumua
Pilvisyys: Ukkospilviä
Näkyvyys: 4 km
Pilvisyystiedot: Pilvistä 30 m
2020/01/29 03:20 EFHA 290320Z AUTO 12009KT 090V150 4000 BR OVC001 //////CB 00/00 Q0997
 
EFMI - Mikkeli, Finland
Etäisyys Sääasemalta: EKa 140km
Päivitetty: 28/01/2020 19:50
NOT Current
Heikkoa lumisadetta, Pilvistä
Heikkoa lumisadetta, Pilvistä
 Tuulen suunta IKa
Tuuli: IKa 6 km/h
Lämpötila: -1°C
Kastepiste: -1°C
Ilmankosteus: 100%
Ilmanpaine: 1001 hPa
Yhteenveto: Heikkoa lumisadetta
Pilvisyys: Pilvistä
Näkyvyys: 7 km
Pilvisyystiedot: Pilvistä 91 m
2020/01/28 19:50 EFMI 281950Z AUTO 11003KT 7000 -SG OVC003 M01/M01 Q1001
EFSI - Seinajoki-Ilmajo, Finland
Etäisyys Sääasemalta: L 150km
Päivitetty: 29/01/2020 03:20
Pilvistä
Pilvistä
 Tuulen suunta I
Tuuli: I 11 km/h
Lämpötila: 1°C
Tuulen purevuus: -2°C
Kastepiste: 1°C
Ilmankosteus: 100%
Ilmanpaine: 997 hPa
Pilvisyys: Pilvistä
Näkyvyys: 10 km
Pilvisyystiedot: Puolipilvistä 91 m
Pilvistä 488 m
2020/01/29 03:20 EFSI 290320Z AUTO 09006KT 9999 SCT003 OVC016 01/01 Q0997
EFKK - Kruunupyy, Finland
Etäisyys Sääasemalta: Lu 170km
Päivitetty: 29/01/2020 03:20
Pilvistä
Pilvistä
 Tuulen suunta IKo
Tuuli: IKo 9 km/h
Lämpötila: -3°C
Tuulen purevuus: -7°C
Kastepiste: -3°C
Ilmankosteus: 100%
Ilmanpaine: 999 hPa
Pilvisyys: Pilvistä
Näkyvyys: 9 km
Pilvisyystiedot: Pilvistä 61 m
2020/01/29 03:20 EFKK 290320Z 06005KT 9000 OVC002 M03/M03 Q0999
 
EFSA - Savonlinna (aut), Finland
Etäisyys Sääasemalta: IKa 186km
Päivitetty: 29/01/2020 03:20
Pakastuu, Pilvistä
Pakastuu, Pilvistä
 Tuulen suunta Ka
Tuuli: Ka 11 km/h
Lämpötila: -1°C
Tuulen purevuus: -5°C
Kastepiste: -1°C
Ilmankosteus: 100%
Ilmanpaine: 1001 hPa
Yhteenveto: Pakastuu
Pilvisyys: Pilvistä
Näkyvyys: 2 km
Pilvisyystiedot: Pilvistä 30 m
2020/01/29 03:20 EFSA 290320Z AUTO 13006KT 2200 FZUP OVC001 M01/M01 Q1001
EFTP - Tampere/Pirkkala, Finland
Etäisyys Sääasemalta: Lo 187km
Päivitetty: 29/01/2020 03:20
Sumua, Pilvistä
Sumua, Pilvistä
 Tuulen suunta IKa
Tuuli: IKa 17 km/h
Lämpötila: 1°C
Tuulen purevuus: -3°C
Kastepiste: 1°C
Ilmankosteus: 100%
Ilmanpaine: 996 hPa
Yhteenveto: Sumua
Pilvisyys: Pilvistä
Näkyvyys: 4 km
Pilvisyystiedot: Pilvistä 30 m
2020/01/29 03:20 EFTP 290320Z AUTO 12009KT 090V150 4100 BR OVC001 01/01 Q0996
EFKI - Kajaani, Finland
Etäisyys Sääasemalta: PKo 192km
Päivitetty: 29/01/2020 03:20
Heikkoa Lumisadetta, Kuurottaisia sateita, Pilvistä
Heikkoa Lumisadetta, Kuurottaisia sateita, Pilvistä
 Tuulen suunta I
Tuuli: I 15 km/h
Lämpötila: -8°C
Tuulen purevuus: -14°C
Kastepiste: -10°C
Ilmankosteus: 86%
Ilmanpaine: 1002 hPa
Yhteenveto: Heikkoa Lumisadetta, Kuurottaisia sateita
Pilvisyys: Pilvistä
Näkyvyys: 10 km
Pilvisyystiedot: Pilvistä 701 m
2020/01/29 03:20 EFKI 290320Z 10008KT 060V140 9999 -SHSN OVC023 M08/M10 Q1002
 
EFJO - Joensuu, Finland
Etäisyys Sääasemalta: I 196km
Päivitetty: 29/01/2020 03:20
Heikkoa Lumisadetta, Kuurottaisia sateita, Pilvistä
Heikkoa Lumisadetta, Kuurottaisia sateita, Pilvistä
 Tuulen suunta IKa
Tuuli: IKa 13 km/h
Lämpötila: -5°C
Tuulen purevuus: -10°C
Kastepiste: -6°C
Ilmankosteus: 93%
Ilmanpaine: 1002 hPa
Yhteenveto: Heikkoa Lumisadetta, Kuurottaisia sateita
Pilvisyys: Pilvistä
Näkyvyys: 10 km
Pilvisyystiedot: Pilvistä 183 m
2020/01/29 03:20 EFJO 290320Z 11007KT 9999 -SHSN OVC006 M05/M06 Q1002